createdAt,value
2019-02-16T00:00:10.524Z,1023.55
2019-02-16T00:01:10.482Z,1023.52
2019-02-16T00:02:10.484Z,1023.50
2019-02-16T00:03:10.451Z,1023.51
2019-02-16T00:04:10.439Z,1023.48
2019-02-16T00:05:10.428Z,1023.52
2019-02-16T00:06:10.427Z,1023.51
2019-02-16T00:07:10.417Z,1023.57
2019-02-16T00:08:10.451Z,1023.50
2019-02-16T00:09:10.375Z,1023.50
2019-02-16T00:10:10.378Z,1023.46
2019-02-16T00:11:10.358Z,1023.45
2019-02-16T00:12:10.354Z,1023.50
2019-02-16T00:13:10.357Z,1023.51
2019-02-16T00:14:10.321Z,1023.46
2019-02-16T00:15:10.313Z,1023.48
2019-02-16T00:16:10.309Z,1023.46
2019-02-16T00:17:10.291Z,1023.46
2019-02-16T00:18:10.302Z,1023.51
2019-02-16T00:19:10.278Z,1023.47
2019-02-16T00:20:10.261Z,1023.49
2019-02-16T00:21:10.245Z,1023.42
2019-02-16T00:22:10.231Z,1023.42
2019-02-16T00:23:10.275Z,1023.43
2019-02-16T00:24:10.225Z,1023.38
2019-02-16T00:25:10.214Z,1023.41
2019-02-16T00:26:10.192Z,1023.43
2019-02-16T00:27:10.248Z,1023.46
2019-02-16T00:28:10.166Z,1023.35
2019-02-16T00:29:10.166Z,1023.37
2019-02-16T00:30:10.151Z,1023.41
2019-02-16T00:31:10.135Z,1023.34
2019-02-16T00:32:10.133Z,1023.39
2019-02-16T00:33:10.112Z,1023.37
2019-02-16T00:34:10.136Z,1023.35
2019-02-16T00:35:10.105Z,1023.32
2019-02-16T00:36:10.086Z,1023.32
2019-02-16T00:37:10.071Z,1023.29
2019-02-16T00:38:10.059Z,1023.24
2019-02-16T00:39:10.048Z,1023.29
2019-02-16T00:40:10.041Z,1023.32
2019-02-16T00:41:10.045Z,1023.30
2019-02-16T00:42:10.051Z,1023.23
2019-02-16T00:43:10.002Z,1023.30
2019-02-16T00:44:09.989Z,1023.32
2019-02-16T00:45:09.990Z,1023.33
2019-02-16T00:46:09.994Z,1023.30
2019-02-16T00:47:09.977Z,1023.25
2019-02-16T00:48:09.952Z,1023.27
2019-02-16T00:49:09.935Z,1023.26
2019-02-16T00:50:09.932Z,1023.24
2019-02-16T00:51:13.522Z,1023.21
2019-02-16T00:52:09.918Z,1023.18
2019-02-16T00:53:09.907Z,1023.26
2019-02-16T00:54:09.888Z,1023.20
2019-02-16T00:55:09.871Z,1023.21
2019-02-16T00:56:09.867Z,1023.25
2019-02-16T00:57:09.849Z,1023.20
2019-02-16T00:58:09.892Z,1023.19
2019-02-16T00:59:09.827Z,1023.24
2019-02-16T01:00:09.821Z,1023.21
2019-02-16T01:01:09.824Z,1023.21
2019-02-16T01:02:09.797Z,1023.17
2019-02-16T01:03:09.797Z,1023.25
2019-02-16T01:04:09.921Z,1023.21
2019-02-16T01:05:09.765Z,1023.15
2019-02-16T01:06:09.747Z,1023.15
2019-02-16T01:07:09.745Z,1023.15
2019-02-16T01:08:09.732Z,1023.15
2019-02-16T01:09:09.723Z,1023.06
2019-02-16T01:10:09.703Z,1023.10
2019-02-16T01:11:09.701Z,1023.05
2019-02-16T01:12:09.684Z,1023.04
2019-02-16T01:13:09.687Z,1022.98
2019-02-16T01:14:09.692Z,1022.99
2019-02-16T01:15:09.668Z,1023.00
2019-02-16T01:16:09.641Z,1022.97
2019-02-16T01:17:09.629Z,1022.97
2019-02-16T01:18:09.694Z,1022.94
2019-02-16T01:19:09.702Z,1022.94
2019-02-16T01:20:09.622Z,1022.88
2019-02-16T01:21:09.596Z,1022.88
2019-02-16T01:22:09.622Z,1022.86
2019-02-16T01:23:09.610Z,1022.90
2019-02-16T01:24:09.566Z,1022.80
2019-02-16T01:25:09.544Z,1022.82
2019-02-16T01:26:09.634Z,1022.80
2019-02-16T01:27:09.535Z,1022.72
2019-02-16T01:28:09.540Z,1022.77
2019-02-16T01:29:09.501Z,1022.77
2019-02-16T01:30:09.498Z,1022.75
2019-02-16T01:31:09.484Z,1022.76
2019-02-16T01:32:09.490Z,1022.75
2019-02-16T01:33:09.472Z,1022.68
2019-02-16T01:34:09.446Z,1022.69
2019-02-16T01:35:09.436Z,1022.68
2019-02-16T01:36:09.480Z,1022.67
2019-02-16T01:37:09.429Z,1022.69
2019-02-16T01:38:09.456Z,1022.73
2019-02-16T01:39:09.396Z,1022.68
2019-02-16T01:40:09.388Z,1022.74
2019-02-16T01:41:09.373Z,1022.72
2019-02-16T01:42:09.369Z,1022.67
2019-02-16T01:43:09.363Z,1022.64
2019-02-16T01:44:09.361Z,1022.65
2019-02-16T01:45:09.335Z,1022.65
2019-02-16T01:46:09.323Z,1022.65
2019-02-16T01:47:09.309Z,1022.59
2019-02-16T01:48:09.304Z,1022.60
2019-02-16T01:49:09.293Z,1022.59
2019-02-16T01:50:09.273Z,1022.56
2019-02-16T01:51:09.295Z,1022.56
2019-02-16T01:52:09.245Z,1022.58
2019-02-16T01:53:09.239Z,1022.51
2019-02-16T01:54:09.237Z,1022.55
2019-02-16T01:55:09.237Z,1022.55
2019-02-16T01:56:09.218Z,1022.58
2019-02-16T01:57:09.212Z,1022.54
2019-02-16T01:58:09.186Z,1022.54
2019-02-16T01:59:09.235Z,1022.51
2019-02-16T02:00:09.174Z,1022.45
2019-02-16T02:01:09.173Z,1022.52
2019-02-16T02:02:09.146Z,1022.51
2019-02-16T02:03:09.134Z,1022.39
2019-02-16T02:04:09.124Z,1022.41
2019-02-16T02:05:09.131Z,1022.41
2019-02-16T02:06:09.112Z,1022.40
2019-02-16T02:07:09.112Z,1022.40
2019-02-16T02:08:09.142Z,1022.41
2019-02-16T02:09:09.066Z,1022.38
2019-02-16T02:10:09.068Z,1022.39
2019-02-16T02:11:09.048Z,1022.31
2019-02-16T02:12:09.042Z,1022.31
2019-02-16T02:13:09.020Z,1022.36
2019-02-16T02:14:09.012Z,1022.35
2019-02-16T02:15:09.031Z,1022.33
2019-02-16T02:16:08.992Z,1022.30
2019-02-16T02:17:08.982Z,1022.29
2019-02-16T02:18:08.982Z,1022.27
2019-02-16T02:19:08.955Z,1022.30
2019-02-16T02:20:08.936Z,1022.27
2019-02-16T02:21:08.944Z,1022.26
2019-02-16T02:22:08.924Z,1022.27
2019-02-16T02:23:08.926Z,1022.27
2019-02-16T02:24:08.896Z,1022.26
2019-02-16T02:25:08.894Z,1022.23
2019-02-16T02:26:08.903Z,1022.17
2019-02-16T02:27:08.967Z,1022.21
2019-02-16T02:28:08.863Z,1022.19
2019-02-16T02:29:08.891Z,1022.14
2019-02-16T02:30:08.840Z,1022.12
2019-02-16T02:31:08.829Z,1022.16
2019-02-16T02:32:08.824Z,1022.13
2019-02-16T02:33:08.803Z,1022.19
2019-02-16T02:34:08.823Z,1022.21
2019-02-16T02:35:08.786Z,1022.16
2019-02-16T02:36:08.764Z,1022.18
2019-02-16T02:37:08.758Z,1022.16
2019-02-16T02:38:08.756Z,1022.20
2019-02-16T02:39:08.745Z,1022.18
2019-02-16T02:40:08.729Z,1022.19
2019-02-16T02:41:08.758Z,1022.20
2019-02-16T02:42:08.727Z,1022.17
2019-02-16T02:43:08.693Z,1022.15
2019-02-16T02:44:08.683Z,1022.10
2019-02-16T02:45:08.700Z,1022.15
2019-02-16T02:46:08.657Z,1022.10
2019-02-16T02:47:08.658Z,1022.04
2019-02-16T02:48:08.643Z,1022.07
2019-02-16T02:49:08.624Z,1022.08
2019-02-16T02:50:08.627Z,1022.02
2019-02-16T02:51:08.610Z,1022.08
2019-02-16T02:52:08.599Z,1022.05
2019-02-16T02:53:08.579Z,1022.04
2019-02-16T02:54:08.575Z,1021.96
2019-02-16T02:55:08.565Z,1021.98
2019-02-16T02:56:08.560Z,1022.04
2019-02-16T02:57:08.545Z,1021.98
2019-02-16T02:58:08.548Z,1022.02
2019-02-16T02:59:08.582Z,1022.02
2019-02-16T03:00:08.506Z,1021.97
2019-02-16T03:01:08.510Z,1021.93
2019-02-16T03:02:08.488Z,1022.00
2019-02-16T03:03:08.491Z,1021.96
2019-02-16T03:04:08.478Z,1021.93
2019-02-16T03:05:08.467Z,1021.98
2019-02-16T03:06:08.443Z,1022.00
2019-02-16T03:07:08.426Z,1021.96
2019-02-16T03:08:08.458Z,1021.96
2019-02-16T03:09:08.411Z,1021.93
2019-02-16T03:10:08.396Z,1021.91
2019-02-16T03:11:08.388Z,1021.93
2019-02-16T03:12:08.414Z,1021.91
2019-02-16T03:13:08.424Z,1021.94
2019-02-16T03:14:08.360Z,1021.89
2019-02-16T03:15:08.358Z,1021.93
2019-02-16T03:16:08.329Z,1021.89
2019-02-16T03:17:08.363Z,1021.93
2019-02-16T03:18:08.307Z,1021.93
2019-02-16T03:19:08.327Z,1021.88
2019-02-16T03:20:08.299Z,1021.84
2019-02-16T03:21:08.300Z,1021.89
2019-02-16T03:22:08.288Z,1021.96
2019-02-16T03:23:08.260Z,1021.93
2019-02-16T03:24:08.247Z,1021.91
2019-02-16T03:25:08.233Z,1021.92
2019-02-16T03:26:08.231Z,1021.94
2019-02-16T03:27:08.217Z,1022.01
2019-02-16T03:28:08.203Z,1021.96
2019-02-16T03:29:08.194Z,1021.97
2019-02-16T03:30:08.183Z,1021.94
2019-02-16T03:31:08.177Z,1021.95
2019-02-16T03:32:08.186Z,1021.90
2019-02-16T03:33:08.169Z,1021.88
2019-02-16T03:34:08.183Z,1021.83
2019-02-16T03:35:08.129Z,1021.78
2019-02-16T03:36:08.110Z,1021.84
2019-02-16T03:37:08.104Z,1021.81
2019-02-16T03:38:08.103Z,1021.85
2019-02-16T03:39:08.088Z,1021.83
2019-02-16T03:40:08.078Z,1021.86
2019-02-16T03:41:08.070Z,1021.78
2019-02-16T03:42:08.064Z,1021.84
2019-02-16T03:43:08.043Z,1021.81
2019-02-16T03:44:08.078Z,1021.84
2019-02-16T03:45:08.026Z,1021.89
2019-02-16T03:46:08.010Z,1021.90
2019-02-16T03:47:07.994Z,1021.87
2019-02-16T03:48:08.008Z,1021.80
2019-02-16T03:49:07.974Z,1021.82
2019-02-16T03:50:07.979Z,1021.84
2019-02-16T03:51:08.015Z,1021.82
2019-02-16T03:52:13.727Z,1021.83
2019-02-16T03:53:08.939Z,1021.78
2019-02-16T03:54:07.922Z,1021.84
2019-02-16T03:55:07.917Z,1021.75
2019-02-16T03:56:07.897Z,1021.78
2019-02-16T03:57:07.896Z,1021.65
2019-02-16T03:58:07.877Z,1021.78
2019-02-16T03:59:07.971Z,1021.76
2019-02-16T04:00:07.861Z,1021.77
2019-02-16T04:01:07.851Z,1021.75
2019-02-16T04:02:07.858Z,1021.66
2019-02-16T04:03:07.824Z,1021.73
2019-02-16T04:04:07.820Z,1021.68
2019-02-16T04:05:07.859Z,1021.68
2019-02-16T04:06:07.861Z,1021.70
2019-02-16T04:07:07.780Z,1021.76
2019-02-16T04:08:07.763Z,1021.66
2019-02-16T04:09:07.764Z,1021.68
2019-02-16T04:10:07.746Z,1021.65
2019-02-16T04:11:07.738Z,1021.73
2019-02-16T04:12:07.745Z,1021.70
2019-02-16T04:13:07.712Z,1021.67
2019-02-16T04:14:07.706Z,1021.59
2019-02-16T04:15:07.694Z,1021.67
2019-02-16T04:16:07.681Z,1021.57
2019-02-16T04:17:07.678Z,1021.54
2019-02-16T04:18:07.675Z,1021.52
2019-02-16T04:19:07.653Z,1021.53
2019-02-16T04:20:07.652Z,1021.52
2019-02-16T04:21:07.663Z,1021.46
2019-02-16T04:22:07.629Z,1021.51
2019-02-16T04:23:07.611Z,1021.45
2019-02-16T04:24:07.604Z,1021.42
2019-02-16T04:25:07.596Z,1021.45
2019-02-16T04:26:07.574Z,1021.38
2019-02-16T04:27:07.572Z,1021.37
2019-02-16T04:28:07.554Z,1021.44
2019-02-16T04:29:07.548Z,1021.42
2019-02-16T04:30:07.535Z,1021.37
2019-02-16T04:31:07.545Z,1021.41
2019-02-16T04:32:07.505Z,1021.38
2019-02-16T04:33:07.497Z,1021.39
2019-02-16T04:34:07.532Z,1021.31
2019-02-16T04:35:07.480Z,1021.36
2019-02-16T04:36:07.470Z,1021.34
2019-02-16T04:37:07.456Z,1021.22
2019-02-16T04:38:07.442Z,1021.25
2019-02-16T04:39:07.425Z,1021.28
2019-02-16T04:40:07.422Z,1021.24
2019-02-16T04:41:07.408Z,1021.30
2019-02-16T04:42:07.409Z,1021.18
2019-02-16T04:43:07.385Z,1021.20
2019-02-16T04:44:07.379Z,1021.18
2019-02-16T04:45:07.371Z,1021.16
2019-02-16T04:46:07.364Z,1021.12
2019-02-16T04:47:07.344Z,1021.11
2019-02-16T04:48:07.406Z,1021.09
2019-02-16T04:49:07.337Z,1021.07
2019-02-16T04:50:07.316Z,1021.08
2019-02-16T04:51:07.310Z,1021.13
2019-02-16T04:52:07.301Z,1021.11
2019-02-16T04:53:07.284Z,1021.15
2019-02-16T04:54:07.270Z,1021.13
2019-02-16T04:55:07.275Z,1021.11
2019-02-16T04:56:07.247Z,1021.09
2019-02-16T04:57:07.254Z,1021.08
2019-02-16T04:58:07.235Z,1020.98
2019-02-16T04:59:07.220Z,1021.05
2019-02-16T05:00:07.212Z,1021.08
2019-02-16T05:01:07.195Z,1021.02
2019-02-16T05:02:07.184Z,1021.00
2019-02-16T05:03:07.229Z,1021.04
2019-02-16T05:04:07.199Z,1021.02
2019-02-16T05:05:07.154Z,1021.02
2019-02-16T05:06:07.149Z,1020.95
2019-02-16T05:07:07.126Z,1021.00
2019-02-16T05:08:07.125Z,1021.00
2019-02-16T05:09:07.125Z,1021.00
2019-02-16T05:10:07.101Z,1021.00
2019-02-16T05:11:07.082Z,1020.97
2019-02-16T05:12:07.101Z,1021.01
2019-02-16T05:13:07.087Z,1020.98
2019-02-16T05:14:07.063Z,1020.98
2019-02-16T05:15:07.055Z,1020.94
2019-02-16T05:16:07.033Z,1020.92
2019-02-16T05:17:07.027Z,1020.89
2019-02-16T05:18:07.011Z,1020.93
2019-02-16T05:19:07.003Z,1020.94
2019-02-16T05:20:07.010Z,1020.94
2019-02-16T05:21:06.974Z,1021.04
2019-02-16T05:22:06.966Z,1020.92
2019-02-16T05:23:06.961Z,1020.99
2019-02-16T05:24:06.953Z,1020.88
2019-02-16T05:25:06.950Z,1020.94
2019-02-16T05:26:06.950Z,1020.87
2019-02-16T05:27:06.922Z,1020.89
2019-02-16T05:28:06.903Z,1020.83
2019-02-16T05:29:06.902Z,1020.92
2019-02-16T05:30:06.903Z,1020.85
2019-02-16T05:31:06.878Z,1020.87
2019-02-16T05:32:06.875Z,1020.81
2019-02-16T05:33:06.864Z,1020.89
2019-02-16T05:34:06.847Z,1020.91
2019-02-16T05:35:06.841Z,1020.84
2019-02-16T05:36:06.825Z,1020.79
2019-02-16T05:37:06.857Z,1020.81
2019-02-16T05:38:06.814Z,1020.83
2019-02-16T05:39:06.791Z,1020.85
2019-02-16T05:40:06.783Z,1020.86
2019-02-16T05:41:06.769Z,1020.81
2019-02-16T05:42:06.756Z,1020.86
2019-02-16T05:43:06.739Z,1020.90
2019-02-16T05:44:06.739Z,1020.86
2019-02-16T05:45:06.725Z,1020.90
2019-02-16T05:46:06.727Z,1020.96
2019-02-16T05:47:06.731Z,1020.90
2019-02-16T05:48:06.692Z,1020.97
2019-02-16T05:49:06.688Z,1020.92
2019-02-16T05:50:06.663Z,1020.93
2019-02-16T05:51:06.657Z,1020.85
2019-02-16T05:52:06.654Z,1020.85
2019-02-16T05:53:06.636Z,1020.86
2019-02-16T05:54:06.619Z,1020.91
2019-02-16T05:55:06.617Z,1020.85
2019-02-16T05:56:06.599Z,1020.89
2019-02-16T05:57:06.595Z,1020.80
2019-02-16T05:58:06.572Z,1020.83
2019-02-16T05:59:08.206Z,1020.88
2019-02-16T06:00:06.565Z,1020.86
2019-02-16T06:01:06.585Z,1020.89
2019-02-16T06:02:06.539Z,1020.83
2019-02-16T06:03:06.527Z,1020.85
2019-02-16T06:04:06.522Z,1020.84
2019-02-16T06:05:06.496Z,1020.82
2019-02-16T06:06:06.501Z,1020.83
2019-02-16T06:07:06.481Z,1020.80
2019-02-16T06:08:06.473Z,1020.83
2019-02-16T06:09:06.470Z,1020.83
2019-02-16T06:10:06.461Z,1020.86
2019-02-16T06:11:06.453Z,1020.82
2019-02-16T06:12:06.437Z,1020.75
2019-02-16T06:13:06.410Z,1020.81
2019-02-16T06:14:06.398Z,1020.72
2019-02-16T06:15:06.463Z,1020.77
2019-02-16T06:16:06.400Z,1020.81
2019-02-16T06:17:06.372Z,1020.71
2019-02-16T06:18:06.372Z,1020.75
2019-02-16T06:19:06.393Z,1020.74
2019-02-16T06:20:06.335Z,1020.72
2019-02-16T06:21:06.341Z,1020.72
2019-02-16T06:22:06.323Z,1020.74
2019-02-16T06:23:06.312Z,1020.77
2019-02-16T06:24:06.309Z,1020.74
2019-02-16T06:25:06.295Z,1020.81
2019-02-16T06:26:06.293Z,1020.80
2019-02-16T06:27:06.323Z,1020.80
2019-02-16T06:28:06.251Z,1020.81
2019-02-16T06:29:06.249Z,1020.79
2019-02-16T06:30:06.230Z,1020.77
2019-02-16T06:31:06.219Z,1020.77
2019-02-16T06:32:06.248Z,1020.81
2019-02-16T06:33:06.199Z,1020.71
2019-02-16T06:34:06.193Z,1020.71
2019-02-16T06:35:07.189Z,1020.78
2019-02-16T06:36:06.172Z,1020.71
2019-02-16T06:37:06.160Z,1020.76
2019-02-16T06:38:06.149Z,1020.74
2019-02-16T06:39:06.216Z,1020.77
2019-02-16T06:40:06.128Z,1020.83
2019-02-16T06:41:06.130Z,1020.76
2019-02-16T06:42:06.102Z,1020.83
2019-02-16T06:43:06.101Z,1020.83
2019-02-16T06:44:06.092Z,1020.86
2019-02-16T06:45:06.120Z,1020.82
2019-02-16T06:46:06.070Z,1020.82
2019-02-16T06:47:06.070Z,1020.82
2019-02-16T06:48:06.047Z,1020.82
2019-02-16T06:49:06.024Z,1020.84
2019-02-16T06:50:06.020Z,1020.88
2019-02-16T06:51:06.009Z,1020.91
2019-02-16T06:52:06.012Z,1020.92
2019-02-16T06:53:12.977Z,1020.90
2019-02-16T06:54:07.026Z,1020.91
2019-02-16T06:55:05.998Z,1020.93
2019-02-16T06:56:06.064Z,1020.91
2019-02-16T06:57:05.951Z,1020.91
2019-02-16T06:58:05.935Z,1020.87
2019-02-16T06:59:05.939Z,1020.94
2019-02-16T07:00:05.906Z,1020.92
2019-02-16T07:01:05.897Z,1020.90
2019-02-16T07:02:05.904Z,1020.90
2019-02-16T07:03:05.877Z,1020.89
2019-02-16T07:04:05.905Z,1020.98
2019-02-16T07:05:05.861Z,1021.00
2019-02-16T07:06:05.846Z,1020.94
2019-02-16T07:07:05.837Z,1020.98
2019-02-16T07:08:05.834Z,1020.95
2019-02-16T07:09:05.823Z,1021.00
2019-02-16T07:10:05.810Z,1020.95
2019-02-16T07:11:05.793Z,1020.93
2019-02-16T07:12:05.778Z,1021.01
2019-02-16T07:13:05.773Z,1020.96
2019-02-16T07:14:05.763Z,1020.98
2019-02-16T07:15:05.749Z,1020.96
2019-02-16T07:16:05.750Z,1020.98
2019-02-16T07:17:05.727Z,1021.01
2019-02-16T07:18:05.724Z,1020.97
2019-02-16T07:19:05.714Z,1020.94
2019-02-16T07:20:07.761Z,1020.95
2019-02-16T07:21:05.718Z,1020.97
2019-02-16T07:22:05.682Z,1020.93
2019-02-16T07:23:05.669Z,1020.85
2019-02-16T07:24:05.654Z,1020.82
2019-02-16T07:25:05.642Z,1020.87
2019-02-16T07:26:05.630Z,1020.91
2019-02-16T07:27:05.626Z,1020.89
2019-02-16T07:28:05.652Z,1020.86
2019-02-16T07:29:05.646Z,1020.90
2019-02-16T07:30:05.590Z,1020.90
2019-02-16T07:31:05.573Z,1020.84
2019-02-16T07:32:05.636Z,1020.85
2019-02-16T07:33:05.568Z,1020.87
2019-02-16T07:34:05.549Z,1020.84
2019-02-16T07:35:05.534Z,1020.88
2019-02-16T07:36:05.523Z,1020.76
2019-02-16T07:37:05.512Z,1020.76
2019-02-16T07:38:05.511Z,1020.78
2019-02-16T07:39:05.501Z,1020.80
2019-02-16T07:40:05.482Z,1020.84
2019-02-16T07:41:05.466Z,1020.79
2019-02-16T07:42:05.458Z,1020.78
2019-02-16T07:43:05.455Z,1020.77
2019-02-16T07:44:05.442Z,1020.76
2019-02-16T07:45:05.578Z,1020.81
2019-02-16T07:46:05.413Z,1020.76
2019-02-16T07:47:05.405Z,1020.75
2019-02-16T07:48:05.397Z,1020.81
2019-02-16T07:49:05.381Z,1020.79
2019-02-16T07:50:05.390Z,1020.78
2019-02-16T07:51:05.364Z,1020.82
2019-02-16T07:52:05.350Z,1020.78
2019-02-16T07:53:05.355Z,1020.79
2019-02-16T07:54:05.330Z,1020.76
2019-02-16T07:55:05.393Z,1020.78
2019-02-16T07:56:05.306Z,1020.80
2019-02-16T07:57:05.375Z,1020.77
2019-02-16T07:58:05.316Z,1020.80
2019-02-16T07:59:05.282Z,1020.78
2019-02-16T08:00:05.265Z,1020.77
2019-02-16T08:01:05.255Z,1020.78
2019-02-16T08:02:05.241Z,1020.72
2019-02-16T08:03:05.239Z,1020.81
2019-02-16T08:04:05.227Z,1020.80
2019-02-16T08:05:05.214Z,1020.78
2019-02-16T08:06:05.194Z,1020.81
2019-02-16T08:07:05.190Z,1020.79
2019-02-16T08:08:05.171Z,1020.75
2019-02-16T08:09:05.169Z,1020.74
2019-02-16T08:10:05.159Z,1020.76
2019-02-16T08:11:05.142Z,1020.75
2019-02-16T08:12:05.134Z,1020.71
2019-02-16T08:13:05.139Z,1020.77
2019-02-16T08:14:05.109Z,1020.82
2019-02-16T08:15:05.104Z,1020.72
2019-02-16T08:16:05.109Z,1020.76
2019-02-16T08:17:05.119Z,1020.74
2019-02-16T08:18:05.122Z,1020.71
2019-02-16T08:19:05.072Z,1020.65
2019-02-16T08:20:05.078Z,1020.68
2019-02-16T08:21:05.045Z,1020.66
2019-02-16T08:22:05.113Z,1020.70
2019-02-16T08:23:05.016Z,1020.59
2019-02-16T08:24:05.001Z,1020.61
2019-02-16T08:25:04.987Z,1020.56
2019-02-16T08:26:04.968Z,1020.64
2019-02-16T08:27:05.024Z,1020.62
2019-02-16T08:28:04.967Z,1020.58
2019-02-16T08:29:04.943Z,1020.60
2019-02-16T08:30:04.955Z,1020.63
2019-02-16T08:31:04.925Z,1020.55
2019-02-16T08:32:04.906Z,1020.57
2019-02-16T08:33:05.900Z,1020.53
2019-02-16T08:34:04.887Z,1020.56
2019-02-16T08:35:04.887Z,1020.42
2019-02-16T08:36:04.858Z,1020.44
2019-02-16T08:37:04.893Z,1020.46
2019-02-16T08:38:04.839Z,1020.47
2019-02-16T08:39:04.835Z,1020.41
2019-02-16T08:40:04.822Z,1020.47
2019-02-16T08:41:04.862Z,1020.44
2019-02-16T08:42:04.825Z,1020.45
2019-02-16T08:43:04.788Z,1020.48
2019-02-16T08:44:04.785Z,1020.47
2019-02-16T08:45:04.763Z,1020.45
2019-02-16T08:46:04.782Z,1020.48
2019-02-16T08:47:04.751Z,1020.45
2019-02-16T08:48:04.738Z,1020.45
2019-02-16T08:49:04.756Z,1020.45
2019-02-16T08:50:04.712Z,1020.44
2019-02-16T08:51:04.697Z,1020.43
2019-02-16T08:52:04.692Z,1020.44
2019-02-16T08:53:04.675Z,1020.48
2019-02-16T08:54:04.674Z,1020.40
2019-02-16T08:55:04.661Z,1020.44
2019-02-16T08:56:04.656Z,1020.41
2019-02-16T08:57:04.660Z,1020.42
2019-02-16T08:58:04.632Z,1020.44
2019-02-16T08:59:04.717Z,1020.45
2019-02-16T09:00:04.610Z,1020.43
2019-02-16T09:01:04.595Z,1020.47
2019-02-16T09:02:04.593Z,1020.35
2019-02-16T09:03:04.586Z,1020.35
2019-02-16T09:04:04.573Z,1020.39
2019-02-16T09:05:04.557Z,1020.38
2019-02-16T09:06:04.566Z,1020.39
2019-02-16T09:07:04.535Z,1020.32
2019-02-16T09:08:04.528Z,1020.35
2019-02-16T09:09:04.513Z,1020.27
2019-02-16T09:10:04.513Z,1020.25
2019-02-16T09:11:04.537Z,1020.25
2019-02-16T09:12:05.916Z,1020.24
2019-02-16T09:13:04.496Z,1020.29
2019-02-16T09:14:04.486Z,1020.32
2019-02-16T09:15:04.447Z,1020.31
2019-02-16T09:16:04.425Z,1020.31
2019-02-16T09:17:04.427Z,1020.29
2019-02-16T09:18:04.535Z,1020.30
2019-02-16T09:19:04.391Z,1020.30
2019-02-16T09:20:04.385Z,1020.29
2019-02-16T09:21:04.381Z,1020.36
2019-02-16T09:22:04.358Z,1020.36
2019-02-16T09:23:04.352Z,1020.39
2019-02-16T09:24:04.334Z,1020.31
2019-02-16T09:25:04.333Z,1020.33
2019-02-16T09:26:04.323Z,1020.34
2019-02-16T09:27:04.436Z,1020.36
2019-02-16T09:28:04.289Z,1020.37
2019-02-16T09:29:04.288Z,1020.37
2019-02-16T09:30:04.285Z,1020.32
2019-02-16T09:31:04.260Z,1020.30
2019-02-16T09:32:04.268Z,1020.37
2019-02-16T09:33:04.236Z,1020.30
2019-02-16T09:34:04.251Z,1020.36
2019-02-16T09:35:04.218Z,1020.35
2019-02-16T09:36:04.200Z,1020.37
2019-02-16T09:37:04.219Z,1020.38
2019-02-16T09:38:04.224Z,1020.36
2019-02-16T09:39:04.175Z,1020.41
2019-02-16T09:40:04.181Z,1020.37
2019-02-16T09:41:04.151Z,1020.28
2019-02-16T09:42:04.147Z,1020.31
2019-02-16T09:43:04.150Z,1020.29
2019-02-16T09:44:04.179Z,1020.33
2019-02-16T09:45:04.201Z,1020.31
2019-02-16T09:46:04.105Z,1020.33
2019-02-16T09:47:04.094Z,1020.34
2019-02-16T09:48:04.083Z,1020.30
2019-02-16T09:49:04.117Z,1020.38
2019-02-16T09:50:04.054Z,1020.38
2019-02-16T09:51:04.047Z,1020.41
2019-02-16T09:52:04.058Z,1020.36
2019-02-16T09:53:04.032Z,1020.38
2019-02-16T09:54:08.485Z,1020.41
2019-02-16T09:55:04.036Z,1020.30
2019-02-16T09:56:03.992Z,1020.25
2019-02-16T09:57:03.999Z,1020.30
2019-02-16T09:58:04.045Z,1020.34
2019-02-16T09:59:03.965Z,1020.30
2019-02-16T10:00:03.959Z,1020.29
2019-02-16T10:01:03.943Z,1020.34
2019-02-16T10:02:03.927Z,1020.35
2019-02-16T10:03:03.911Z,1020.27
2019-02-16T10:04:03.926Z,1020.34
2019-02-16T10:05:03.930Z,1020.32
2019-02-16T10:06:03.915Z,1020.34
2019-02-16T10:07:03.868Z,1020.33
2019-02-16T10:08:04.005Z,1020.24
2019-02-16T10:09:03.847Z,1020.26
2019-02-16T10:10:03.836Z,1020.28
2019-02-16T10:11:03.823Z,1020.33
2019-02-16T10:12:03.854Z,1020.29
2019-02-16T10:13:03.807Z,1020.36
2019-02-16T10:14:03.805Z,1020.28
2019-02-16T10:15:03.789Z,1020.32
2019-02-16T10:16:03.810Z,1020.32
2019-02-16T10:17:03.798Z,1020.32
2019-02-16T10:18:03.756Z,1020.27
2019-02-16T10:19:03.828Z,1020.27
2019-02-16T10:20:03.768Z,1020.32
2019-02-16T10:21:03.733Z,1020.29
2019-02-16T10:22:03.719Z,1020.30
2019-02-16T10:23:03.711Z,1020.26
2019-02-16T10:24:03.742Z,1020.17
2019-02-16T10:25:03.675Z,1020.21
2019-02-16T10:26:03.723Z,1020.15
2019-02-16T10:27:03.648Z,1020.18
2019-02-16T10:28:04.385Z,1020.14
2019-02-16T10:29:03.669Z,1020.17
2019-02-16T10:30:03.644Z,1020.14
2019-02-16T10:31:03.613Z,1020.06
2019-02-16T10:32:03.592Z,1020.07
2019-02-16T10:33:03.594Z,1020.02
2019-02-16T10:34:03.576Z,1020.07
2019-02-16T10:35:03.627Z,1020.09
2019-02-16T10:36:03.566Z,1020.04
2019-02-16T10:37:03.576Z,1020.08
2019-02-16T10:38:03.523Z,1020.12
2019-02-16T10:39:03.519Z,1020.06
2019-02-16T10:40:03.516Z,1020.09
2019-02-16T10:41:03.493Z,1020.05
2019-02-16T10:42:03.476Z,1020.09
2019-02-16T10:43:03.480Z,1020.06
2019-02-16T10:44:03.453Z,1020.02
2019-02-16T10:45:03.451Z,1020.03
2019-02-16T10:46:03.481Z,1020.04
2019-02-16T10:47:03.438Z,1019.98
2019-02-16T10:48:03.415Z,1019.94
2019-02-16T10:49:03.399Z,1019.89
2019-02-16T10:50:03.389Z,1019.93
2019-02-16T10:51:03.394Z,1019.95
2019-02-16T10:52:03.382Z,1019.91
2019-02-16T10:53:03.359Z,1019.96
2019-02-16T10:54:03.341Z,1019.88
2019-02-16T10:55:03.332Z,1019.91
2019-02-16T10:56:03.332Z,1019.89
2019-02-16T10:57:03.323Z,1019.80
2019-02-16T10:58:03.299Z,1019.83
2019-02-16T10:59:03.289Z,1019.84
2019-02-16T11:00:03.330Z,1019.83
2019-02-16T11:01:03.279Z,1019.79
2019-02-16T11:02:03.363Z,1019.76
2019-02-16T11:03:03.271Z,1019.76
2019-02-16T11:04:03.268Z,1019.76
2019-02-16T11:05:03.286Z,1019.76
2019-02-16T11:06:03.218Z,1019.75
2019-02-16T11:07:03.218Z,1019.74
2019-02-16T11:08:03.216Z,1019.74
2019-02-16T11:09:03.189Z,1019.73
2019-02-16T11:10:03.206Z,1019.75
2019-02-16T11:11:03.171Z,1019.71
2019-02-16T11:12:03.148Z,1019.77
2019-02-16T11:13:03.147Z,1019.72
2019-02-16T11:14:03.138Z,1019.74
2019-02-16T11:15:03.116Z,1019.75
2019-02-16T11:16:03.105Z,1019.77
2019-02-16T11:17:03.099Z,1019.76
2019-02-16T11:18:03.078Z,1019.80
2019-02-16T11:19:03.077Z,1019.80
2019-02-16T11:20:03.082Z,1019.82
2019-02-16T11:21:03.111Z,1019.77
2019-02-16T11:22:04.512Z,1019.81
2019-02-16T11:23:03.036Z,1019.81
2019-02-16T11:24:03.020Z,1019.87
2019-02-16T11:25:03.021Z,1019.82
2019-02-16T11:26:03.002Z,1019.83
2019-02-16T11:27:02.979Z,1019.83
2019-02-16T11:28:02.994Z,1019.84
2019-02-16T11:29:02.958Z,1019.88
2019-02-16T11:30:02.951Z,1019.91
2019-02-16T11:31:02.999Z,1019.84
2019-02-16T11:32:02.936Z,1019.89
2019-02-16T11:33:02.923Z,1019.90
2019-02-16T11:34:02.910Z,1019.89
2019-02-16T11:35:02.901Z,1019.90
2019-02-16T11:36:02.903Z,1019.89
2019-02-16T11:37:02.956Z,1019.93
2019-02-16T11:38:02.889Z,1019.86
2019-02-16T11:39:02.956Z,1019.77
2019-02-16T11:40:02.839Z,1019.79
2019-02-16T11:41:02.834Z,1019.81
2019-02-16T11:42:02.828Z,1019.76
2019-02-16T11:43:02.825Z,1019.78
2019-02-16T11:44:02.863Z,1019.79
2019-02-16T11:45:02.789Z,1019.78
2019-02-16T11:46:02.793Z,1019.77
2019-02-16T11:47:02.764Z,1019.81
2019-02-16T11:48:02.755Z,1019.73
2019-02-16T11:49:02.738Z,1019.80
2019-02-16T11:50:02.729Z,1019.76
2019-02-16T11:51:02.741Z,1019.77
2019-02-16T11:52:02.754Z,1019.71
2019-02-16T11:53:02.702Z,1019.65
2019-02-16T11:54:02.717Z,1019.66
2019-02-16T11:55:02.668Z,1019.66
2019-02-16T11:56:02.660Z,1019.64
2019-02-16T11:57:02.670Z,1019.63
2019-02-16T11:58:02.662Z,1019.64
2019-02-16T11:59:02.946Z,1019.62
2019-02-16T12:00:02.623Z,1019.67
2019-02-16T12:01:02.610Z,1019.69
2019-02-16T12:02:02.594Z,1019.62
2019-02-16T12:03:02.589Z,1019.59
2019-02-16T12:04:02.591Z,1019.50
2019-02-16T12:05:02.576Z,1019.52